Time;durP1;ratioP1;P1;durP2;ratioP2;P2;SDS_P1;SDS_P2;PMS_P1;PMS_P2;Temp;Humidity;BMP_temperature;BMP_pressure;BME280_temperature;BME280_humidity;BME280_pressure;Samples;Min_cycle;Max_cycle;Signal;HPM_P1;HPM_P2
2024/03/21 00:00:24;;;;;;;3.50;2.50;;;;;;;;;;6243805;22;20518;-50
2024/03/21 00:02:52;;;;;;;2.33;2.13;;;;;;;;;;6243751;22;20201;-49
2024/03/21 00:05:19;;;;;;;2.45;2.25;;;;;;;;;;6243953;22;20173;-53
2024/03/21 00:07:49;;;;;;;2.22;2.03;;;;;;;;;;6243802;22;20220;-51
2024/03/21 00:10:16;;;;;;;3.00;2.80;;;;;;;;;;6243812;22;20260;-53
2024/03/21 00:12:44;;;;;;;2.90;2.67;;;;;;;;;;6243482;22;20173;-50
2024/03/21 00:15:13;;;;;;;2.33;2.13;;;;;;;;;;6243890;22;20181;-49
2024/03/21 00:17:41;;;;;;;2.60;2.40;;;;;;;;;;6243818;22;20204;-48
2024/03/21 00:20:10;;;;;;;2.83;2.63;;;;;;;;;;6244056;22;20231;-50
2024/03/21 00:22:38;;;;;;;2.17;1.98;;;;;;;;;;6243911;22;20649;-50
2024/03/21 00:25:06;;;;;;;2.45;2.25;;;;;;;;;;6244211;23;20173;-52
2024/03/21 00:27:34;;;;;;;3.28;2.80;;;;;;;;;;6243709;22;20459;-53
2024/03/21 00:30:01;;;;;;;3.15;2.58;;;;;;;;;;6244122;23;20177;-51
2024/03/21 00:32:30;;;;;;;2.78;2.53;;;;;;;;;;6242977;22;20231;-49
2024/03/21 00:34:56;;;;;;;2.30;2.00;;;;;;;;;;6244015;22;20179;-52
2024/03/21 00:37:24;;;;;;;2.35;2.22;;;;;;;;;;6242797;22;20232;-48
2024/03/21 00:39:53;;;;;;;2.70;2.40;;;;;;;;;;6243588;22;20177;-49
2024/03/21 00:42:21;;;;;;;2.78;2.60;;;;;;;;;;6243821;23;20180;-48
2024/03/21 00:44:48;;;;;;;3.60;3.13;;;;;;;;;;6243618;22;20184;-48
2024/03/21 00:47:15;;;;;;;3.47;3.17;;;;;;;;;;6243199;22;20591;-48
2024/03/21 00:49:43;;;;;;;3.67;3.35;;;;;;;;;;6243302;22;20204;-48
2024/03/21 00:52:10;;;;;;;3.53;3.22;;;;;;;;;;6243022;22;20173;-48
2024/03/21 00:54:37;;;;;;;3.08;2.78;;;;;;;;;;6242784;22;20181;-51
2024/03/21 00:57:06;;;;;;;4.63;3.38;;;;;;;;;;6243316;22;20197;-49
2024/03/21 00:59:34;;;;;;;4.13;3.83;;;;;;;;;;6243820;22;20180;-48
2024/03/21 01:02:01;;;;;;;3.55;3.17;;;;;;;;;;6242872;22;20497;-50
2024/03/21 01:04:27;;;;;;;3.10;2.85;;;;;;;;;;6243131;22;20181;-50
2024/03/21 01:06:56;;;;;;;3.85;3.38;;;;;;;;;;6242817;22;20169;-49
2024/03/21 01:09:23;;;;;;;3.38;3.08;;;;;;;;;;6243299;22;20184;-51
2024/03/21 01:11:52;;;;;;;5.40;4.30;;;;;;;;;;6243024;22;20196;-49
2024/03/21 01:14:18;;;;;;;3.97;3.58;;;;;;;;;;6243970;22;20649;-49
2024/03/21 01:16:45;;;;;;;3.55;3.25;;;;;;;;;;6242983;22;20200;-50
2024/03/21 01:19:12;;;;;;;3.78;3.38;;;;;;;;;;6243096;22;20199;-51
2024/03/21 01:21:39;;;;;;;3.65;3.35;;;;;;;;;;6243239;22;20177;-49
2024/03/21 01:24:07;;;;;;;4.00;3.70;;;;;;;;;;6243379;22;20495;-50
2024/03/21 01:26:35;;;;;;;3.90;3.60;;;;;;;;;;6243663;22;20212;-51
2024/03/21 01:29:01;;;;;;;4.40;4.00;;;;;;;;;;6243321;22;20193;-50
2024/03/21 01:31:29;;;;;;;4.13;3.72;;;;;;;;;;6242365;22;20186;-49
2024/03/21 01:33:55;;;;;;;3.53;3.00;;;;;;;;;;6242744;22;20517;-51
2024/03/21 01:36:23;;;;;;;3.58;3.28;;;;;;;;;;6243067;22;20204;-48
2024/03/21 01:38:49;;;;;;;4.10;3.70;;;;;;;;;;6243306;22;20208;-49
2024/03/21 01:41:18;;;;;;;4.15;3.83;;;;;;;;;;6242933;22;20173;-51
2024/03/21 01:43:45;;;;;;;3.30;3.08;;;;;;;;;;6243665;22;20180;-51
2024/03/21 01:46:17;;;;;;;3.17;2.90;;;;;;;;;;6243031;22;20174;-48
2024/03/21 01:48:46;;;;;;;4.82;3.60;;;;;;;;;;6243568;23;20272;-51
2024/03/21 01:51:17;;;;;;;3.65;3.35;;;;;;;;;;6243395;22;20181;-49
2024/03/21 01:53:44;;;;;;;3.10;2.83;;;;;;;;;;6243354;23;20185;-51
2024/03/21 01:56:11;;;;;;;3.72;3.28;;;;;;;;;;6243302;22;20173;-52
2024/03/21 01:58:39;;;;;;;4.60;3.30;;;;;;;;;;6243126;22;20193;-48
2024/03/21 02:01:24;;;;;;;2.92;2.72;;;;;;;;;;6242628;22;20256;-49
2024/03/21 02:03:52;;;;;;;2.97;2.72;;;;;;;;;;6243160;23;20157;-49
2024/03/21 02:06:20;;;;;;;3.00;2.53;;;;;;;;;;6243260;23;20177;-49
2024/03/21 02:08:47;;;;;;;3.20;2.88;;;;;;;;;;6243391;23;20704;-52
2024/03/21 02:11:15;;;;;;;3.10;2.90;;;;;;;;;;6243496;22;20626;-49
2024/03/21 02:13:46;;;;;;;3.15;2.85;;;;;;;;;;6242919;22;20177;-49
2024/03/21 02:16:14;;;;;;;3.38;3.08;;;;;;;;;;6243263;22;20221;-52
2024/03/21 02:18:40;;;;;;;3.03;2.58;;;;;;;;;;6243773;22;20513;-51
2024/03/21 02:22:35;;;;;;;3.17;2.88;;;;;;;;;;6244792;22;20205;-51
2024/03/21 02:23:56;;;;;;;2.85;2.42;;;;;;;;;;6244586;23;20177;-50
2024/03/21 02:26:24;;;;;;;4.07;2.70;;;;;;;;;;6245363;22;20546;-51
2024/03/21 02:28:51;;;;;;;1.98;1.88;;;;;;;;;;6245486;23;20680;-49
2024/03/21 02:31:20;;;;;;;2.85;2.65;;;;;;;;;;6244965;22;20177;-48
2024/03/21 02:33:47;;;;;;;4.45;3.33;;;;;;;;;;6245120;23;20177;-50
2024/03/21 02:36:14;;;;;;;3.28;2.88;;;;;;;;;;6245287;22;20177;-49
2024/03/21 02:38:41;;;;;;;3.30;2.38;;;;;;;;;;6244552;22;20223;-53
2024/03/21 02:41:10;;;;;;;2.15;2.05;;;;;;;;;;6244833;22;20243;-52
2024/03/21 02:43:36;;;;;;;3.75;3.40;;;;;;;;;;6244650;22;20181;-53
2024/03/21 02:46:04;;;;;;;3.38;3.13;;;;;;;;;;6244928;22;20215;-48
2024/03/21 02:48:31;;;;;;;3.78;3.47;;;;;;;;;;6244665;22;20188;-49
2024/03/21 02:50:59;;;;;;;3.65;3.33;;;;;;;;;;6245096;22;20188;-51
2024/03/21 02:53:25;;;;;;;3.20;3.00;;;;;;;;;;6244313;22;20188;-52
2024/03/21 02:55:53;;;;;;;3.53;2.88;;;;;;;;;;6244425;22;20307;-54
2024/03/21 02:58:20;;;;;;;3.72;3.08;;;;;;;;;;6244320;22;20222;-50
2024/03/21 03:00:48;;;;;;;3.85;3.45;;;;;;;;;;6244540;22;20180;-50
2024/03/21 03:03:15;;;;;;;4.05;3.65;;;;;;;;;;6244311;22;20179;-49
2024/03/21 03:05:43;;;;;;;2.95;2.60;;;;;;;;;;6244150;22;20173;-52
2024/03/21 03:08:09;;;;;;;2.92;2.72;;;;;;;;;;6244382;23;20203;-51
2024/03/21 03:10:37;;;;;;;2.75;2.50;;;;;;;;;;6244214;22;20184;-49
2024/03/21 03:13:04;;;;;;;3.17;2.58;;;;;;;;;;6244557;22;20173;-50
2024/03/21 03:15:33;;;;;;;2.55;2.35;;;;;;;;;;6244873;23;20235;-49
2024/03/21 03:18:00;;;;;;;2.70;2.50;;;;;;;;;;6244554;22;20222;-49
2024/03/21 03:20:27;;;;;;;3.40;3.10;;;;;;;;;;6244320;22;20204;-49
2024/03/21 03:22:55;;;;;;;2.00;1.90;;;;;;;;;;6244346;22;20256;-50
2024/03/21 03:25:22;;;;;;;2.85;2.65;;;;;;;;;;6244567;22;20179;-49
2024/03/21 03:27:49;;;;;;;2.78;2.58;;;;;;;;;;6244090;22;20195;-49
2024/03/21 03:30:16;;;;;;;3.22;2.92;;;;;;;;;;6244253;22;20173;-53
2024/03/21 03:32:47;;;;;;;4.95;3.47;;;;;;;;;;6244427;22;20177;-54
2024/03/21 03:38:00;;;;;;;3.15;2.85;;;;;;;;;;6244167;23;20208;-50
2024/03/21 03:40:28;;;;;;;3.30;3.00;;;;;;;;;;6244591;22;20169;-49
2024/03/21 03:42:56;;;;;;;2.65;2.45;;;;;;;;;;6243978;22;20184;-50
2024/03/21 03:45:24;;;;;;;3.25;3.05;;;;;;;;;;6244760;22;20172;-48
2024/03/21 03:47:52;;;;;;;3.83;3.33;;;;;;;;;;6244566;22;20189;-46
2024/03/21 03:50:20;;;;;;;3.67;3.38;;;;;;;;;;6244895;22;20200;-52
2024/03/21 03:52:47;;;;;;;3.70;3.40;;;;;;;;;;6244830;22;20177;-49
2024/03/21 03:55:14;;;;;;;4.32;3.65;;;;;;;;;;6244815;22;20514;-51
2024/03/21 03:57:41;;;;;;;4.18;3.80;;;;;;;;;;6243983;22;20515;-50
2024/03/21 04:00:10;;;;;;;3.78;3.45;;;;;;;;;;6244295;22;20605;-48
2024/03/21 04:02:38;;;;;;;3.97;3.67;;;;;;;;;;6244268;22;20231;-49
2024/03/21 04:05:07;;;;;;;3.25;2.95;;;;;;;;;;6244577;22;20176;-46
2024/03/21 04:07:34;;;;;;;3.85;3.55;;;;;;;;;;6244369;22;20189;-48
2024/03/21 04:10:01;;;;;;;3.15;2.90;;;;;;;;;;6244544;22;20173;-47
2024/03/21 04:12:28;;;;;;;3.10;2.90;;;;;;;;;;6243983;22;20260;-48
2024/03/21 04:14:55;;;;;;;3.47;3.17;;;;;;;;;;6243961;22;20248;-48
2024/03/21 04:17:22;;;;;;;3.65;3.33;;;;;;;;;;6243687;22;20227;-48
2024/03/21 04:19:48;;;;;;;3.00;2.72;;;;;;;;;;6244105;22;20521;-49
2024/03/21 04:22:17;;;;;;;3.42;3.13;;;;;;;;;;6244506;22;20660;-52
2024/03/21 04:24:46;;;;;;;2.88;2.67;;;;;;;;;;6244643;22;20252;-51
2024/03/21 04:27:14;;;;;;;2.88;2.67;;;;;;;;;;6244207;23;20196;-50
2024/03/21 04:29:41;;;;;;;3.70;3.40;;;;;;;;;;6244129;22;20629;-48
2024/03/21 04:32:14;;;;;;;3.92;3.58;;;;;;;;;;6244246;22;20219;-47
2024/03/21 04:34:41;;;;;;;4.63;4.22;;;;;;;;;;6244226;23;20168;-49
2024/03/21 04:37:10;;;;;;;3.90;3.60;;;;;;;;;;6244535;22;20261;-51
2024/03/21 04:39:38;;;;;;;3.85;3.22;;;;;;;;;;6245011;23;20681;-50
2024/03/21 04:42:06;;;;;;;3.70;3.40;;;;;;;;;;6244078;22;20173;-49
2024/03/21 04:44:34;;;;;;;3.25;3.00;;;;;;;;;;6243986;22;20579;-49
2024/03/21 04:47:01;;;;;;;3.40;3.20;;;;;;;;;;6244135;22;20173;-52
2024/03/21 04:49:28;;;;;;;2.97;2.78;;;;;;;;;;6244025;22;20648;-48
2024/03/21 04:51:55;;;;;;;4.65;3.97;;;;;;;;;;6243655;22;20685;-53
2024/03/21 04:54:22;;;;;;;3.45;3.15;;;;;;;;;;6243257;22;20195;-51
2024/03/21 04:56:50;;;;;;;3.60;3.35;;;;;;;;;;6243870;22;20174;-51
2024/03/21 04:59:17;;;;;;;3.30;3.00;;;;;;;;;;6241244;22;20645;-54
2024/03/21 05:01:45;;;;;;;3.80;3.45;;;;;;;;;;6243147;22;20173;-50
2024/03/21 05:04:11;;;;;;;4.22;3.83;;;;;;;;;;6243595;22;20745;-50
2024/03/21 05:06:39;;;;;;;3.10;2.88;;;;;;;;;;6243310;22;20173;-49
2024/03/21 05:09:06;;;;;;;3.08;2.88;;;;;;;;;;6243251;22;20271;-51
2024/03/21 05:11:34;;;;;;;5.13;3.92;;;;;;;;;;6243537;22;20205;-53
2024/03/21 05:14:02;;;;;;;4.88;4.22;;;;;;;;;;6243390;22;20173;-49
2024/03/21 05:16:30;;;;;;;5.90;3.80;;;;;;;;;;6243458;22;20181;-55
2024/03/21 05:18:56;;;;;;;4.40;4.00;;;;;;;;;;6243521;22;20197;-54
2024/03/21 05:21:24;;;;;;;5.88;4.82;;;;;;;;;;6243271;22;20648;-53
2024/03/21 05:23:50;;;;;;;4.80;4.40;;;;;;;;;;6243182;22;20695;-49
2024/03/21 05:26:18;;;;;;;5.30;4.80;;;;;;;;;;6243442;22;20512;-53
2024/03/21 05:28:46;;;;;;;4.05;3.65;;;;;;;;;;6243116;22;20193;-53
2024/03/21 05:31:22;;;;;;;3.65;3.30;;;;;;;;;;6243536;22;20200;-54
2024/03/21 05:33:49;;;;;;;6.47;5.50;;;;;;;;;;6243800;23;20228;-53
2024/03/21 05:36:17;;;;;;;6.03;5.43;;;;;;;;;;6243313;22;20516;-54
2024/03/21 05:38:45;;;;;;;5.00;4.53;;;;;;;;;;6243452;22;20205;-52
2024/03/21 05:41:13;;;;;;;8.40;5.47;;;;;;;;;;6243605;22;20189;-54
2024/03/21 05:43:39;;;;;;;7.72;5.50;;;;;;;;;;6243196;22;20184;-52
2024/03/21 05:46:07;;;;;;;5.78;4.93;;;;;;;;;;6243931;22;20173;-54
2024/03/21 05:48:35;;;;;;;5.93;5.35;;;;;;;;;;6243031;22;20193;-55
2024/03/21 05:51:04;;;;;;;6.18;4.75;;;;;;;;;;6243706;22;20169;-50
2024/03/21 05:53:31;;;;;;;5.13;4.57;;;;;;;;;;6244495;23;20185;-53
2024/03/21 05:56:04;;;;;;;5.88;4.57;;;;;;;;;;6245290;22;20173;-52
2024/03/21 05:58:30;;;;;;;3.72;3.42;;;;;;;;;;6245522;22;20200;-55
2024/03/21 06:01:04;;;;;;;5.82;4.47;;;;;;;;;;6245071;23;20226;-51
2024/03/21 06:03:31;;;;;;;3.92;3.63;;;;;;;;;;6244952;23;20165;-52
2024/03/21 06:06:00;;;;;;;4.45;4.05;;;;;;;;;;6245570;22;20216;-51
2024/03/21 06:08:26;;;;;;;6.03;4.28;;;;;;;;;;6244785;22;20268;-54
2024/03/21 06:10:54;;;;;;;3.85;3.55;;;;;;;;;;6245649;22;20197;-50
2024/03/21 06:13:21;;;;;;;4.60;4.00;;;;;;;;;;6244967;22;20173;-50
2024/03/21 06:15:48;;;;;;;5.80;3.65;;;;;;;;;;6245155;22;20184;-50
2024/03/21 06:18:15;;;;;;;3.88;3.05;;;;;;;;;;6245267;22;20232;-51
2024/03/21 06:20:43;;;;;;;4.07;3.38;;;;;;;;;;6244752;22;20177;-49
2024/03/21 06:23:11;;;;;;;4.38;3.97;;;;;;;;;;6244929;22;20256;-49
2024/03/21 06:25:38;;;;;;;4.28;3.60;;;;;;;;;;6244428;22;20220;-53
2024/03/21 06:28:05;;;;;;;3.67;3.35;;;;;;;;;;6244440;22;20541;-51
2024/03/21 06:30:33;;;;;;;4.05;3.15;;;;;;;;;;6244696;22;20176;-52
2024/03/21 06:33:00;;;;;;;4.03;3.65;;;;;;;;;;6244622;22;20518;-53
2024/03/21 06:35:28;;;;;;;3.53;3.22;;;;;;;;;;6244856;22;20196;-55
2024/03/21 06:37:55;;;;;;;3.97;3.63;;;;;;;;;;6244665;22;20666;-54
2024/03/21 06:40:25;;;;;;;3.67;3.28;;;;;;;;;;6244984;22;20204;-52
2024/03/21 06:42:53;;;;;;;3.30;3.03;;;;;;;;;;6244888;22;20177;-53
2024/03/21 06:45:21;;;;;;;3.63;3.33;;;;;;;;;;6245276;22;20177;-56
2024/03/21 06:47:49;;;;;;;3.70;3.40;;;;;;;;;;6244775;23;20220;-54
2024/03/21 06:50:18;;;;;;;5.32;4.35;;;;;;;;;;6245117;22;20176;-52
2024/03/21 06:52:46;;;;;;;6.72;3.53;;;;;;;;;;6244267;22;20251;-54
2024/03/21 06:55:13;;;;;;;8.52;6.28;;;;;;;;;;6244549;22;20181;-50
2024/03/21 06:57:43;;;;;;;6.75;6.05;;;;;;;;;;6244382;22;20507;-55
2024/03/21 07:00:12;;;;;;;4.82;4.22;;;;;;;;;;6244654;22;20272;-52
2024/03/21 07:02:39;;;;;;;7.03;6.32;;;;;;;;;;6244649;23;20196;-55
2024/03/21 07:05:07;;;;;;;11.98;9.40;;;;;;;;;;6244464;22;20230;-51
2024/03/21 07:07:34;;;;;;;13.98;10.60;;;;;;;;;;6243887;22;20197;-51
2024/03/21 07:10:02;;;;;;;9.77;8.93;;;;;;;;;;6243953;22;20173;-54
2024/03/21 07:12:29;;;;;;;13.38;11.98;;;;;;;;;;6244627;22;20255;-51
2024/03/21 07:14:58;;;;;;;18.05;15.70;;;;;;;;;;6244017;22;20183;-50
2024/03/21 07:17:26;;;;;;;15.10;13.50;;;;;;;;;;6244431;22;20205;-54
2024/03/21 07:19:54;;;;;;;15.82;12.85;;;;;;;;;;6244953;22;20197;-54
2024/03/21 07:22:20;;;;;;;15.40;13.60;;;;;;;;;;6244439;22;20179;-54
2024/03/21 07:24:48;;;;;;;15.73;13.85;;;;;;;;;;6244387;22;20232;-55
2024/03/21 07:27:15;;;;;;;19.27;14.93;;;;;;;;;;6244096;22;20536;-55
2024/03/21 07:29:42;;;;;;;16.05;14.25;;;;;;;;;;6244066;22;20177;-53
2024/03/21 07:32:10;;;;;;;16.25;12.65;;;;;;;;;;6244383;22;20231;-55
2024/03/21 07:34:38;;;;;;;10.38;9.18;;;;;;;;;;6243813;22;20173;-55
2024/03/21 07:37:04;;;;;;;17.38;13.10;;;;;;;;;;6244050;22;20173;-55
2024/03/21 07:39:32;;;;;;;14.75;12.18;;;;;;;;;;6243619;22;20668;-55
2024/03/21 07:41:59;;;;;;;20.70;13.20;;;;;;;;;;6244005;22;20197;-53
2024/03/21 07:44:28;;;;;;;14.02;12.13;;;;;;;;;;6244086;22;20680;-53
2024/03/21 07:46:54;;;;;;;15.57;11.40;;;;;;;;;;6244509;22;20256;-53
2024/03/21 07:49:23;;;;;;;17.00;13.77;;;;;;;;;;6243484;22;20220;-54
2024/03/21 07:51:51;;;;;;;14.30;12.82;;;;;;;;;;6243935;22;20195;-52
2024/03/21 07:54:18;;;;;;;20.73;15.75;;;;;;;;;;6244000;22;20513;-53
2024/03/21 07:56:45;;;;;;;16.75;14.10;;;;;;;;;;6243994;22;20584;-51
2024/03/21 07:59:12;;;;;;;15.30;13.70;;;;;;;;;;6243944;22;20673;-50
2024/03/21 08:01:39;;;;;;;17.88;12.30;;;;;;;;;;6244043;22;20173;-51
2024/03/21 08:04:08;;;;;;;15.05;12.90;;;;;;;;;;6243772;22;20637;-49
2024/03/21 08:06:36;;;;;;;14.50;12.30;;;;;;;;;;6244186;22;20177;-50
2024/03/21 08:09:05;;;;;;;14.18;11.85;;;;;;;;;;6244157;22;20275;-55
2024/03/21 08:11:32;;;;;;;12.98;11.55;;;;;;;;;;6243883;22;20227;-54
2024/03/21 08:13:59;;;;;;;10.10;9.05;;;;;;;;;;6243429;22;20181;-53
2024/03/21 08:16:25;;;;;;;15.25;12.18;;;;;;;;;;6243643;22;20251;-52
2024/03/21 08:18:53;;;;;;;13.38;11.98;;;;;;;;;;6243386;22;20235;-50
2024/03/21 08:21:21;;;;;;;11.85;10.65;;;;;;;;;;6243466;22;20197;-53
2024/03/21 08:23:50;;;;;;;13.07;9.95;;;;;;;;;;6244153;22;20180;-53
2024/03/21 08:26:18;;;;;;;14.35;11.40;;;;;;;;;;6243992;22;20173;-52
2024/03/21 08:28:45;;;;;;;11.68;9.48;;;;;;;;;;6243783;22;20208;-49
2024/03/21 08:31:12;;;;;;;9.40;8.32;;;;;;;;;;6243912;22;20176;-52
2024/03/21 08:33:39;;;;;;;10.90;9.13;;;;;;;;;;6242682;22;20208;-52
2024/03/21 08:36:06;;;;;;;9.70;8.70;;;;;;;;;;6243940;22;20256;-53
2024/03/21 08:38:34;;;;;;;9.13;8.23;;;;;;;;;;6243237;22;20236;-54
2024/03/21 08:41:03;;;;;;;10.15;8.63;;;;;;;;;;6243920;22;20299;-48
2024/03/21 08:43:30;;;;;;;7.60;6.88;;;;;;;;;;6243531;22;20177;-49
2024/03/21 08:45:56;;;;;;;10.52;8.50;;;;;;;;;;6243773;22;20173;-49
2024/03/21 08:48:24;;;;;;;9.20;7.57;;;;;;;;;;6243714;22;20605;-52
2024/03/21 08:50:50;;;;;;;8.73;7.93;;;;;;;;;;6243821;22;20170;-52
2024/03/21 08:53:18;;;;;;;7.75;6.95;;;;;;;;;;6243242;22;20181;-51
2024/03/21 08:55:45;;;;;;;11.15;7.57;;;;;;;;;;6243820;22;20260;-48
2024/03/21 08:58:16;;;;;;;9.45;8.48;;;;;;;;;;6243703;22;20213;-52
2024/03/21 09:00:42;;;;;;;8.05;6.78;;;;;;;;;;6243564;22;20200;-52
2024/03/21 09:03:11;;;;;;;6.80;6.05;;;;;;;;;;6243048;22;20211;-53
2024/03/21 09:05:37;;;;;;;6.22;5.65;;;;;;;;;;6243769;22;20575;-53
2024/03/21 09:08:05;;;;;;;7.32;6.55;;;;;;;;;;6242895;22;20196;-48
2024/03/21 09:10:31;;;;;;;7.68;6.55;;;;;;;;;;6243622;22;20704;-48
2024/03/21 09:12:59;;;;;;;7.03;6.15;;;;;;;;;;6242548;22;20215;-52
2024/03/21 09:15:27;;;;;;;6.57;5.88;;;;;;;;;;6243363;22;20215;-48
2024/03/21 09:17:54;;;;;;;7.72;6.78;;;;;;;;;;6243261;22;20701;-48
2024/03/21 09:20:21;;;;;;;6.75;5.78;;;;;;;;;;6243149;22;20207;-53
2024/03/21 09:22:48;;;;;;;7.78;6.82;;;;;;;;;;6242654;22;20177;-54
2024/03/21 09:25:15;;;;;;;7.72;6.72;;;;;;;;;;6243252;22;20177;-51
2024/03/21 09:27:42;;;;;;;6.35;4.90;;;;;;;;;;6243840;22;20196;-49
2024/03/21 09:30:10;;;;;;;9.00;7.13;;;;;;;;;;6245465;22;20641;-49
2024/03/21 09:32:39;;;;;;;10.80;7.63;;;;;;;;;;6244523;22;20180;-53
2024/03/21 09:35:07;;;;;;;7.82;6.72;;;;;;;;;;6245428;22;20180;-51
2024/03/21 09:37:34;;;;;;;8.32;7.38;;;;;;;;;;6245027;22;20275;-52
2024/03/21 09:40:01;;;;;;;8.45;7.50;;;;;;;;;;6245464;22;20255;-54
2024/03/21 09:42:29;;;;;;;11.68;7.90;;;;;;;;;;6245354;23;20504;-51
2024/03/21 09:44:56;;;;;;;7.15;6.45;;;;;;;;;;6245931;23;20819;-51
2024/03/21 09:47:27;;;;;;;8.05;7.05;;;;;;;;;;6245320;22;20729;-49
2024/03/21 09:49:55;;;;;;;8.13;7.30;;;;;;;;;;6245467;23;20165;-51
2024/03/21 09:52:22;;;;;;;8.57;7.78;;;;;;;;;;6244942;22;20184;-52
2024/03/21 09:54:48;;;;;;;8.85;7.88;;;;;;;;;;6245343;23;20181;-53
2024/03/21 09:57:17;;;;;;;8.13;7.32;;;;;;;;;;6245630;22;20224;-53
2024/03/21 09:59:43;;;;;;;8.13;7.28;;;;;;;;;;6245017;22;20172;-53
2024/03/21 10:02:12;;;;;;;8.80;7.82;;;;;;;;;;6244836;22;20203;-51
2024/03/21 10:04:43;;;;;;;9.70;8.70;;;;;;;;;;6245180;23;20182;-52
2024/03/21 10:07:22;;;;;;;9.43;8.30;;;;;;;;;;6245090;22;20561;-54
2024/03/21 10:09:55;;;;;;;9.18;8.27;;;;;;;;;;6245031;23;20161;-53
2024/03/21 10:12:23;;;;;;;8.82;7.35;;;;;;;;;;6245019;22;20173;-48
2024/03/21 10:14:53;;;;;;;6.80;6.13;;;;;;;;;;6245597;23;20260;-52
2024/03/21 10:17:20;;;;;;;5.57;5.05;;;;;;;;;;6245411;23;20268;-52
2024/03/21 10:19:47;;;;;;;6.63;6.03;;;;;;;;;;6244796;22;20648;-52
2024/03/21 10:22:21;;;;;;;9.30;4.95;;;;;;;;;;6244720;22;20224;-49
2024/03/21 10:24:52;;;;;;;5.18;4.68;;;;;;;;;;6245265;23;20489;-53
2024/03/21 10:27:20;;;;;;;5.65;5.15;;;;;;;;;;6244707;22;20197;-49
2024/03/21 10:29:46;;;;;;;4.85;4.32;;;;;;;;;;6245165;22;20172;-49
2024/03/21 10:32:18;;;;;;;3.97;3.63;;;;;;;;;;6244657;22;20252;-52
2024/03/21 10:34:50;;;;;;;8.13;5.75;;;;;;;;;;6245306;23;20344;-50
2024/03/21 10:37:19;;;;;;;3.47;3.20;;;;;;;;;;6245360;22;20684;-53
2024/03/21 10:39:48;;;;;;;4.00;3.67;;;;;;;;;;6243973;22;20185;-49
2024/03/21 10:42:28;;;;;;;3.65;3.35;;;;;;;;;;6245079;23;20579;-49
2024/03/21 10:44:59;;;;;;;3.38;3.03;;;;;;;;;;6245455;23;20165;-50
2024/03/21 10:47:27;;;;;;;3.50;3.20;;;;;;;;;;6244620;23;20204;-49
2024/03/21 10:49:54;;;;;;;3.05;2.83;;;;;;;;;;6245063;22;20179;-53
2024/03/21 10:52:22;;;;;;;3.35;3.08;;;;;;;;;;6244867;23;20505;-50
2024/03/21 10:54:52;;;;;;;4.22;3.83;;;;;;;;;;6244304;22;20180;-50
2024/03/21 10:57:20;;;;;;;3.40;2.80;;;;;;;;;;6244601;22;20193;-51
2024/03/21 10:59:56;;;;;;;3.22;2.92;;;;;;;;;;6245020;23;20184;-52
2024/03/21 11:02:28;;;;;;;4.18;3.70;;;;;;;;;;6244407;22;20299;-54
2024/03/21 11:04:55;;;;;;;3.17;2.97;;;;;;;;;;6244736;22;20520;-52
2024/03/21 11:07:23;;;;;;;3.75;3.40;;;;;;;;;;6244805;22;20692;-51
2024/03/21 11:09:51;;;;;;;3.45;3.15;;;;;;;;;;6244151;22;20255;-54
2024/03/21 11:12:19;;;;;;;3.63;3.33;;;;;;;;;;6243936;22;20630;-54
2024/03/21 11:14:46;;;;;;;3.58;3.28;;;;;;;;;;6244707;23;20264;-51
2024/03/21 11:17:15;;;;;;;3.38;3.08;;;;;;;;;;6244277;22;20197;-49
2024/03/21 11:19:42;;;;;;;3.38;3.08;;;;;;;;;;6245033;23;20173;-53
2024/03/21 11:22:14;;;;;;;3.50;3.22;;;;;;;;;;6243920;22;20551;-48
2024/03/21 11:24:40;;;;;;;3.60;3.30;;;;;;;;;;6244723;22;20179;-50
2024/03/21 11:27:17;;;;;;;3.42;3.13;;;;;;;;;;6243762;22;20181;-53
2024/03/21 11:29:45;;;;;;;3.85;3.53;;;;;;;;;;6245025;23;20165;-52
2024/03/21 11:32:13;;;;;;;3.25;3.03;;;;;;;;;;6244003;22;20698;-50
2024/03/21 11:34:40;;;;;;;3.33;3.05;;;;;;;;;;6244257;22;20690;-49
2024/03/21 11:37:15;;;;;;;3.60;3.30;;;;;;;;;;6244368;22;20177;-53
2024/03/21 11:39:42;;;;;;;3.63;3.33;;;;;;;;;;6244739;23;20157;-52
2024/03/21 11:42:12;;;;;;;4.05;3.63;;;;;;;;;;6243613;22;20661;-51
2024/03/21 11:44:40;;;;;;;3.72;3.42;;;;;;;;;;6244792;22;20177;-50
2024/03/21 11:47:13;;;;;;;4.30;3.90;;;;;;;;;;6244820;23;20185;-50
2024/03/21 11:49:40;;;;;;;4.10;3.80;;;;;;;;;;6244956;23;20241;-51
2024/03/21 11:52:11;;;;;;;5.25;4.07;;;;;;;;;;6243440;22;20653;-49
2024/03/21 11:54:37;;;;;;;3.50;3.20;;;;;;;;;;6244234;23;20499;-50
2024/03/21 11:57:05;;;;;;;3.75;3.45;;;;;;;;;;6244237;22;20660;-49
2024/03/21 11:59:37;;;;;;;3.75;3.45;;;;;;;;;;6244377;22;20215;-52
2024/03/21 12:02:07;;;;;;;3.47;3.17;;;;;;;;;;6244344;22;20201;-50
2024/03/21 12:04:33;;;;;;;3.80;3.50;;;;;;;;;;6244429;22;20513;-49
2024/03/21 12:07:00;;;;;;;4.45;4.05;;;;;;;;;;6244244;22;20176;-52
2024/03/21 12:09:27;;;;;;;4.28;3.85;;;;;;;;;;6243457;22;20184;-52
2024/03/21 12:11:54;;;;;;;4.60;4.20;;;;;;;;;;6243935;22;20572;-51
2024/03/21 12:14:21;;;;;;;4.00;3.70;;;;;;;;;;6244020;22;20173;-49
2024/03/21 12:16:49;;;;;;;4.25;3.85;;;;;;;;;;6243634;22;20177;-51
2024/03/21 12:19:16;;;;;;;4.60;4.20;;;;;;;;;;6244162;22;20696;-52
2024/03/21 12:21:43;;;;;;;3.63;3.33;;;;;;;;;;6243312;22;20201;-49
2024/03/21 12:24:10;;;;;;;3.90;3.50;;;;;;;;;;6243802;22;20180;-53
2024/03/21 12:26:37;;;;;;;4.22;3.90;;;;;;;;;;6243426;22;20229;-52
2024/03/21 12:29:04;;;;;;;4.05;3.70;;;;;;;;;;6243715;22;20200;-51
2024/03/21 12:31:31;;;;;;;4.45;3.92;;;;;;;;;;6243392;22;20169;-52
2024/03/21 12:34:00;;;;;;;4.32;3.40;;;;;;;;;;6243255;22;20200;-52
2024/03/21 12:36:27;;;;;;;3.83;3.25;;;;;;;;;;6244224;22;20173;-49
2024/03/21 12:38:54;;;;;;;3.30;2.70;;;;;;;;;;6243815;22;20679;-50
2024/03/21 12:41:21;;;;;;;3.30;3.10;;;;;;;;;;6243870;22;20177;-52
2024/03/21 12:43:48;;;;;;;3.45;3.15;;;;;;;;;;6243484;22;20183;-50
2024/03/21 12:46:16;;;;;;;3.67;3.40;;;;;;;;;;6243580;22;20179;-50
2024/03/21 12:48:44;;;;;;;3.45;3.15;;;;;;;;;;6243984;22;20228;-50
2024/03/21 12:51:14;;;;;;;4.38;3.95;;;;;;;;;;6244203;22;20514;-51
2024/03/21 12:53:41;;;;;;;4.15;3.72;;;;;;;;;;6243376;23;20180;-50
2024/03/21 12:56:09;;;;;;;3.92;3.47;;;;;;;;;;6244307;22;20251;-51
2024/03/21 12:58:35;;;;;;;3.80;3.38;;;;;;;;;;6243685;22;20189;-51
2024/03/21 13:01:03;;;;;;;4.20;3.65;;;;;;;;;;6243421;22;20173;-53
2024/03/21 13:03:29;;;;;;;2.90;2.42;;;;;;;;;;6242789;22;20196;-53
2024/03/21 13:05:57;;;;;;;4.82;3.40;;;;;;;;;;6243928;22;20560;-50
2024/03/21 13:08:25;;;;;;;3.95;3.55;;;;;;;;;;6243399;22;20193;-54
2024/03/21 13:10:52;;;;;;;3.20;2.45;;;;;;;;;;6243391;22;20216;-52
2024/03/21 13:13:18;;;;;;;3.55;2.95;;;;;;;;;;6243615;22;20502;-50
2024/03/21 13:15:46;;;;;;;3.05;2.65;;;;;;;;;;6242879;22;20216;-51
2024/03/21 13:18:12;;;;;;;3.13;2.70;;;;;;;;;;6243480;22;20201;-50
2024/03/21 13:20:40;;;;;;;3.60;3.15;;;;;;;;;;6243763;22;20180;-50
2024/03/21 13:23:06;;;;;;;4.35;3.72;;;;;;;;;;6242939;22;20203;-50
2024/03/21 13:25:35;;;;;;;3.28;2.97;;;;;;;;;;6243199;22;20259;-51
2024/03/21 13:28:03;;;;;;;3.22;2.92;;;;;;;;;;6243506;22;20532;-50
2024/03/21 13:30:32;;;;;;;3.75;3.40;;;;;;;;;;6243372;23;20173;-51
2024/03/21 13:32:59;;;;;;;3.90;3.40;;;;;;;;;;6243589;23;20173;-50
2024/03/21 13:35:26;;;;;;;3.38;3.08;;;;;;;;;;6243660;22;20260;-50
2024/03/21 13:37:53;;;;;;;3.95;3.08;;;;;;;;;;6243951;22;20275;-51
2024/03/21 13:40:21;;;;;;;3.35;3.05;;;;;;;;;;6243445;22;20173;-49
2024/03/21 13:42:50;;;;;;;3.53;3.17;;;;;;;;;;6243189;22;20220;-49
2024/03/21 13:45:18;;;;;;;3.88;2.88;;;;;;;;;;6243849;22;20179;-50
2024/03/21 13:47:46;;;;;;;4.03;3.05;;;;;;;;;;6244005;22;20197;-50
2024/03/21 13:50:12;;;;;;;3.50;3.28;;;;;;;;;;6243557;22;20173;-49
2024/03/21 13:52:41;;;;;;;4.45;2.85;;;;;;;;;;6243201;22;20174;-53
2024/03/21 13:55:09;;;;;;;2.88;2.60;;;;;;;;;;6243421;23;20187;-54
2024/03/21 13:57:37;;;;;;;2.60;2.40;;;;;;;;;;6243506;22;20279;-50
2024/03/21 14:00:09;;;;;;;3.38;2.95;;;;;;;;;;6244050;22;20520;-49
2024/03/21 14:02:37;;;;;;;2.95;2.00;;;;;;;;;;6243099;23;20185;-53
2024/03/21 14:05:07;;;;;;;3.53;2.53;;;;;;;;;;6243532;22;20176;-51
2024/03/21 14:07:34;;;;;;;2.42;2.22;;;;;;;;;;6243204;22;20251;-50
2024/03/21 14:10:03;;;;;;;2.70;2.50;;;;;;;;;;6243807;22;20177;-50
2024/03/21 14:12:32;;;;;;;3.45;2.33;;;;;;;;;;6243540;22;20173;-53
2024/03/21 14:14:59;;;;;;;3.15;2.72;;;;;;;;;;6245485;23;20556;-52
2024/03/21 14:17:31;;;;;;;3.05;2.22;;;;;;;;;;6245295;23;20264;-50
2024/03/21 14:19:59;;;;;;;4.35;3.67;;;;;;;;;;6245783;23;20169;-53
2024/03/21 14:22:26;;;;;;;3.95;2.28;;;;;;;;;;6245197;22;20283;-54
2024/03/21 14:24:52;;;;;;;3.38;3.08;;;;;;;;;;6245571;22;20173;-53
2024/03/21 14:27:20;;;;;;;2.58;2.03;;;;;;;;;;6244350;22;20200;-50
2024/03/21 14:29:46;;;;;;;2.17;2.00;;;;;;;;;;6244969;22;20184;-50
2024/03/21 14:32:14;;;;;;;4.75;2.10;;;;;;;;;;6245118;22;20184;-50
2024/03/21 14:34:43;;;;;;;3.13;2.15;;;;;;;;;;6244417;22;20173;-48
2024/03/21 14:37:10;;;;;;;2.08;1.98;;;;;;;;;;6245470;22;20594;-49
2024/03/21 14:39:37;;;;;;;2.50;2.28;;;;;;;;;;6244464;22;20172;-49
2024/03/21 14:42:06;;;;;;;2.00;1.90;;;;;;;;;;6244817;22;20201;-53
2024/03/21 14:44:33;;;;;;;2.38;1.90;;;;;;;;;;6244894;22;20243;-52
2024/03/21 14:47:00;;;;;;;2.50;2.10;;;;;;;;;;6244939;22;20173;-52